sensor_id;sensor_type;location;lat;lon;timestamp;P1;durP1;ratioP1;P2;durP2;ratioP2
1563;SDS011;775;51.958;7.976;2024-01-15T00:01:02;18.20;;;7.30;;
1563;SDS011;775;51.958;7.976;2024-01-15T00:03:50;19.17;;;8.00;;
1563;SDS011;775;51.958;7.976;2024-01-15T00:06:37;17.37;;;6.33;;
1563;SDS011;775;51.958;7.976;2024-01-15T00:09:25;16.53;;;6.83;;
1563;SDS011;775;51.958;7.976;2024-01-15T00:12:13;19.77;;;7.63;;
1563;SDS011;775;51.958;7.976;2024-01-15T00:15:00;16.60;;;5.83;;
1563;SDS011;775;51.958;7.976;2024-01-15T00:17:49;16.70;;;5.77;;
1563;SDS011;775;51.958;7.976;2024-01-15T00:20:36;15.90;;;5.17;;
1563;SDS011;775;51.958;7.976;2024-01-15T00:23:24;17.83;;;5.80;;
1563;SDS011;775;51.958;7.976;2024-01-15T00:26:13;15.57;;;5.83;;
1563;SDS011;775;51.958;7.976;2024-01-15T00:29:00;16.10;;;5.57;;
1563;SDS011;775;51.958;7.976;2024-01-15T00:31:48;14.93;;;4.93;;
1563;SDS011;775;51.958;7.976;2024-01-15T00:34:37;16.63;;;5.43;;
1563;SDS011;775;51.958;7.976;2024-01-15T00:37:24;15.77;;;5.20;;
1563;SDS011;775;51.958;7.976;2024-01-15T00:40:12;18.07;;;6.37;;
1563;SDS011;775;51.958;7.976;2024-01-15T00:42:59;15.60;;;4.70;;
1563;SDS011;775;51.958;7.976;2024-01-15T00:45:47;15.67;;;5.17;;
1563;SDS011;775;51.958;7.976;2024-01-15T00:48:35;17.03;;;6.50;;
1563;SDS011;775;51.958;7.976;2024-01-15T00:51:23;15.80;;;5.37;;
1563;SDS011;775;51.958;7.976;2024-01-15T00:54:11;15.40;;;5.40;;
1563;SDS011;775;51.958;7.976;2024-01-15T00:56:58;19.30;;;4.93;;
1563;SDS011;775;51.958;7.976;2024-01-15T00:59:46;15.47;;;5.47;;
1563;SDS011;775;51.958;7.976;2024-01-15T01:02:34;14.80;;;5.10;;
1563;SDS011;775;51.958;7.976;2024-01-15T01:05:21;16.83;;;5.50;;
1563;SDS011;775;51.958;7.976;2024-01-15T01:08:10;16.27;;;5.50;;
1563;SDS011;775;51.958;7.976;2024-01-15T01:11:00;17.30;;;5.77;;
1563;SDS011;775;51.958;7.976;2024-01-15T01:13:47;15.10;;;5.07;;
1563;SDS011;775;51.958;7.976;2024-01-15T01:16:35;15.23;;;4.97;;
1563;SDS011;775;51.958;7.976;2024-01-15T01:19:24;15.80;;;5.63;;
1563;SDS011;775;51.958;7.976;2024-01-15T01:22:11;16.90;;;5.67;;
1563;SDS011;775;51.958;7.976;2024-01-15T01:25:00;15.33;;;4.93;;
1563;SDS011;775;51.958;7.976;2024-01-15T01:27:47;15.93;;;5.90;;
1563;SDS011;775;51.958;7.976;2024-01-15T01:30:35;15.93;;;5.20;;
1563;SDS011;775;51.958;7.976;2024-01-15T01:33:22;17.57;;;5.30;;
1563;SDS011;775;51.958;7.976;2024-01-15T01:36:10;18.67;;;5.77;;
1563;SDS011;775;51.958;7.976;2024-01-15T01:38:57;18.40;;;5.47;;
1563;SDS011;775;51.958;7.976;2024-01-15T01:41:46;15.27;;;5.47;;
1563;SDS011;775;51.958;7.976;2024-01-15T01:44:33;19.63;;;6.37;;
1563;SDS011;775;51.958;7.976;2024-01-15T01:47:21;16.20;;;4.97;;
1563;SDS011;775;51.958;7.976;2024-01-15T01:50:08;16.43;;;5.57;;
1563;SDS011;775;51.958;7.976;2024-01-15T01:52:56;16.20;;;5.20;;
1563;SDS011;775;51.958;7.976;2024-01-15T01:55:46;18.60;;;5.60;;
1563;SDS011;775;51.958;7.976;2024-01-15T01:58:35;16.47;;;5.50;;
1563;SDS011;775;51.958;7.976;2024-01-15T02:01:23;18.10;;;5.10;;
1563;SDS011;775;51.958;7.976;2024-01-15T02:04:10;18.17;;;6.23;;
1563;SDS011;775;51.958;7.976;2024-01-15T02:06:58;19.83;;;6.00;;
1563;SDS011;775;51.958;7.976;2024-01-15T02:09:46;17.20;;;6.10;;
1563;SDS011;775;51.958;7.976;2024-01-15T02:12:33;18.20;;;6.73;;
1563;SDS011;775;51.958;7.976;2024-01-15T02:15:22;17.17;;;6.13;;
1563;SDS011;775;51.958;7.976;2024-01-15T02:18:09;18.23;;;5.63;;
1563;SDS011;775;51.958;7.976;2024-01-15T02:20:57;17.43;;;5.47;;
1563;SDS011;775;51.958;7.976;2024-01-15T02:23:46;18.97;;;6.47;;
1563;SDS011;775;51.958;7.976;2024-01-15T02:26:35;19.47;;;6.13;;
1563;SDS011;775;51.958;7.976;2024-01-15T02:29:23;17.20;;;5.77;;
1563;SDS011;775;51.958;7.976;2024-01-15T02:32:11;16.70;;;5.77;;
1563;SDS011;775;51.958;7.976;2024-01-15T02:34:58;18.47;;;6.07;;
1563;SDS011;775;51.958;7.976;2024-01-15T02:37:45;16.07;;;6.17;;
1563;SDS011;775;51.958;7.976;2024-01-15T02:40:34;15.50;;;4.73;;
1563;SDS011;775;51.958;7.976;2024-01-15T02:43:22;19.00;;;5.40;;
1563;SDS011;775;51.958;7.976;2024-01-15T02:46:09;20.87;;;5.87;;
1563;SDS011;775;51.958;7.976;2024-01-15T02:48:56;16.00;;;5.40;;
1563;SDS011;775;51.958;7.976;2024-01-15T02:51:44;17.47;;;5.70;;
1563;SDS011;775;51.958;7.976;2024-01-15T02:54:32;17.63;;;6.43;;
1563;SDS011;775;51.958;7.976;2024-01-15T02:57:23;16.67;;;5.30;;
1563;SDS011;775;51.958;7.976;2024-01-15T03:00:11;17.33;;;6.60;;
1563;SDS011;775;51.958;7.976;2024-01-15T03:02:58;15.47;;;5.40;;
1563;SDS011;775;51.958;7.976;2024-01-15T03:05:46;16.27;;;5.67;;
1563;SDS011;775;51.958;7.976;2024-01-15T03:08:33;17.20;;;6.20;;
1563;SDS011;775;51.958;7.976;2024-01-15T03:11:21;19.33;;;5.70;;
1563;SDS011;775;51.958;7.976;2024-01-15T03:14:09;18.07;;;5.23;;
1563;SDS011;775;51.958;7.976;2024-01-15T03:16:57;17.57;;;5.23;;
1563;SDS011;775;51.958;7.976;2024-01-15T03:19:46;17.57;;;5.67;;
1563;SDS011;775;51.958;7.976;2024-01-15T03:22:35;19.27;;;6.90;;
1563;SDS011;775;51.958;7.976;2024-01-15T03:25:24;18.33;;;5.67;;
1563;SDS011;775;51.958;7.976;2024-01-15T03:28:13;16.60;;;5.63;;
1563;SDS011;775;51.958;7.976;2024-01-15T03:31:02;18.43;;;6.60;;
1563;SDS011;775;51.958;7.976;2024-01-15T03:33:50;18.40;;;5.40;;
1563;SDS011;775;51.958;7.976;2024-01-15T03:36:37;18.30;;;6.70;;
1563;SDS011;775;51.958;7.976;2024-01-15T03:39:26;18.23;;;5.30;;
1563;SDS011;775;51.958;7.976;2024-01-15T03:42:13;15.70;;;5.10;;
1563;SDS011;775;51.958;7.976;2024-01-15T03:45:01;15.57;;;5.37;;
1563;SDS011;775;51.958;7.976;2024-01-15T03:47:50;19.23;;;5.50;;
1563;SDS011;775;51.958;7.976;2024-01-15T03:50:37;17.83;;;5.20;;
1563;SDS011;775;51.958;7.976;2024-01-15T03:53:25;17.77;;;5.27;;
1563;SDS011;775;51.958;7.976;2024-01-15T03:56:12;18.30;;;5.50;;
1563;SDS011;775;51.958;7.976;2024-01-15T03:58:59;17.03;;;5.97;;
1563;SDS011;775;51.958;7.976;2024-01-15T04:01:50;17.90;;;5.60;;
1563;SDS011;775;51.958;7.976;2024-01-15T04:04:42;16.17;;;5.37;;
1563;SDS011;775;51.958;7.976;2024-01-15T04:07:29;18.53;;;7.00;;
1563;SDS011;775;51.958;7.976;2024-01-15T04:10:16;17.10;;;4.60;;
1563;SDS011;775;51.958;7.976;2024-01-15T04:13:04;14.57;;;3.97;;
1563;SDS011;775;51.958;7.976;2024-01-15T04:15:51;14.43;;;4.20;;
1563;SDS011;775;51.958;7.976;2024-01-15T04:18:39;16.50;;;5.73;;
1563;SDS011;775;51.958;7.976;2024-01-15T04:21:27;16.10;;;5.00;;
1563;SDS011;775;51.958;7.976;2024-01-15T04:24:15;15.63;;;4.67;;
1563;SDS011;775;51.958;7.976;2024-01-15T04:27:03;15.47;;;4.50;;
1563;SDS011;775;51.958;7.976;2024-01-15T04:29:52;16.83;;;4.47;;
1563;SDS011;775;51.958;7.976;2024-01-15T04:32:39;15.50;;;4.40;;
1563;SDS011;775;51.958;7.976;2024-01-15T04:35:27;15.50;;;4.70;;
1563;SDS011;775;51.958;7.976;2024-01-15T04:38:15;16.87;;;5.13;;
1563;SDS011;775;51.958;7.976;2024-01-15T04:41:05;15.13;;;4.47;;
1563;SDS011;775;51.958;7.976;2024-01-15T04:43:52;16.80;;;4.97;;
1563;SDS011;775;51.958;7.976;2024-01-15T04:46:40;15.50;;;4.17;;
1563;SDS011;775;51.958;7.976;2024-01-15T04:49:29;14.73;;;4.63;;
1563;SDS011;775;51.958;7.976;2024-01-15T04:52:16;15.63;;;4.60;;
1563;SDS011;775;51.958;7.976;2024-01-15T04:55:05;16.33;;;4.57;;
1563;SDS011;775;51.958;7.976;2024-01-15T04:57:53;14.93;;;4.40;;
1563;SDS011;775;51.958;7.976;2024-01-15T05:00:40;14.67;;;4.20;;
1563;SDS011;775;51.958;7.976;2024-01-15T05:03:28;14.90;;;3.80;;
1563;SDS011;775;51.958;7.976;2024-01-15T05:06:15;16.50;;;4.30;;
1563;SDS011;775;51.958;7.976;2024-01-15T05:09:03;16.30;;;4.23;;
1563;SDS011;775;51.958;7.976;2024-01-15T05:11:51;16.17;;;4.10;;
1563;SDS011;775;51.958;7.976;2024-01-15T05:14:41;14.63;;;3.93;;
1563;SDS011;775;51.958;7.976;2024-01-15T05:17:28;14.83;;;4.47;;
1563;SDS011;775;51.958;7.976;2024-01-15T05:20:16;13.60;;;3.60;;
1563;SDS011;775;51.958;7.976;2024-01-15T05:23:03;15.33;;;4.00;;
1563;SDS011;775;51.958;7.976;2024-01-15T05:25:51;13.37;;;4.10;;
1563;SDS011;775;51.958;7.976;2024-01-15T05:28:40;14.60;;;4.60;;
1563;SDS011;775;51.958;7.976;2024-01-15T05:31:28;14.77;;;3.90;;
1563;SDS011;775;51.958;7.976;2024-01-15T05:34:15;14.80;;;3.93;;
1563;SDS011;775;51.958;7.976;2024-01-15T05:37:02;16.30;;;4.37;;
1563;SDS011;775;51.958;7.976;2024-01-15T05:39:50;15.93;;;4.43;;
1563;SDS011;775;51.958;7.976;2024-01-15T05:42:37;15.03;;;4.83;;
1563;SDS011;775;51.958;7.976;2024-01-15T05:45:27;17.50;;;4.40;;
1563;SDS011;775;51.958;7.976;2024-01-15T05:48:14;15.87;;;5.50;;
1563;SDS011;775;51.958;7.976;2024-01-15T05:51:02;13.73;;;3.83;;
1563;SDS011;775;51.958;7.976;2024-01-15T05:53:49;14.93;;;3.90;;
1563;SDS011;775;51.958;7.976;2024-01-15T05:56:36;15.87;;;4.10;;
1563;SDS011;775;51.958;7.976;2024-01-15T05:59:24;17.47;;;4.30;;
1563;SDS011;775;51.958;7.976;2024-01-15T06:02:13;14.03;;;3.40;;
1563;SDS011;775;51.958;7.976;2024-01-15T06:05:00;14.70;;;4.40;;
1563;SDS011;775;51.958;7.976;2024-01-15T06:07:48;15.87;;;4.00;;
1563;SDS011;775;51.958;7.976;2024-01-15T06:10:35;13.30;;;3.40;;
1563;SDS011;775;51.958;7.976;2024-01-15T06:13:23;15.00;;;4.00;;
1563;SDS011;775;51.958;7.976;2024-01-15T06:16:13;18.97;;;3.40;;
1563;SDS011;775;51.958;7.976;2024-01-15T06:19:03;14.83;;;3.30;;
1563;SDS011;775;51.958;7.976;2024-01-15T06:21:50;13.80;;;3.40;;
1563;SDS011;775;51.958;7.976;2024-01-15T06:24:38;14.90;;;3.90;;
1563;SDS011;775;51.958;7.976;2024-01-15T06:27:25;16.40;;;4.30;;
1563;SDS011;775;51.958;7.976;2024-01-15T06:30:13;16.87;;;3.50;;
1563;SDS011;775;51.958;7.976;2024-01-15T06:33:00;15.13;;;3.50;;
1563;SDS011;775;51.958;7.976;2024-01-15T06:35:49;16.73;;;3.63;;
1563;SDS011;775;51.958;7.976;2024-01-15T06:38:37;14.17;;;3.80;;
1563;SDS011;775;51.958;7.976;2024-01-15T06:41:24;15.40;;;3.43;;
1563;SDS011;775;51.958;7.976;2024-01-15T06:44:12;17.83;;;4.00;;
1563;SDS011;775;51.958;7.976;2024-01-15T06:47:00;14.43;;;3.30;;
1563;SDS011;775;51.958;7.976;2024-01-15T06:49:48;13.80;;;3.17;;
1563;SDS011;775;51.958;7.976;2024-01-15T06:52:39;13.50;;;3.17;;
1563;SDS011;775;51.958;7.976;2024-01-15T06:55:26;13.90;;;2.90;;
1563;SDS011;775;51.958;7.976;2024-01-15T06:58:13;16.00;;;3.40;;
1563;SDS011;775;51.958;7.976;2024-01-15T07:01:01;16.00;;;3.43;;
1563;SDS011;775;51.958;7.976;2024-01-15T07:03:49;16.03;;;2.77;;
1563;SDS011;775;51.958;7.976;2024-01-15T07:06:37;14.10;;;3.10;;
1563;SDS011;775;51.958;7.976;2024-01-15T07:09:26;12.50;;;2.50;;
1563;SDS011;775;51.958;7.976;2024-01-15T07:12:15;11.83;;;2.60;;
1563;SDS011;775;51.958;7.976;2024-01-15T07:15:02;13.70;;;2.63;;
1563;SDS011;775;51.958;7.976;2024-01-15T07:17:52;13.53;;;2.60;;
1563;SDS011;775;51.958;7.976;2024-01-15T07:20:39;13.73;;;2.57;;
1563;SDS011;775;51.958;7.976;2024-01-15T07:23:27;13.30;;;2.83;;
1563;SDS011;775;51.958;7.976;2024-01-15T07:26:17;13.77;;;2.80;;
1563;SDS011;775;51.958;7.976;2024-01-15T07:29:04;12.87;;;2.73;;
1563;SDS011;775;51.958;7.976;2024-01-15T07:31:54;14.10;;;2.80;;
1563;SDS011;775;51.958;7.976;2024-01-15T07:34:42;14.40;;;2.50;;
1563;SDS011;775;51.958;7.976;2024-01-15T07:37:31;12.30;;;2.70;;
1563;SDS011;775;51.958;7.976;2024-01-15T07:40:19;12.20;;;2.60;;
1563;SDS011;775;51.958;7.976;2024-01-15T07:43:08;13.77;;;2.60;;
1563;SDS011;775;51.958;7.976;2024-01-15T07:45:55;15.57;;;2.50;;
1563;SDS011;775;51.958;7.976;2024-01-15T07:48:43;12.87;;;2.63;;
1563;SDS011;775;51.958;7.976;2024-01-15T07:51:31;13.73;;;3.10;;
1563;SDS011;775;51.958;7.976;2024-01-15T07:54:18;16.33;;;4.60;;
1563;SDS011;775;51.958;7.976;2024-01-15T07:57:06;17.00;;;3.43;;
1563;SDS011;775;51.958;7.976;2024-01-15T07:59:55;11.97;;;2.13;;
1563;SDS011;775;51.958;7.976;2024-01-15T08:02:42;12.30;;;2.70;;
1563;SDS011;775;51.958;7.976;2024-01-15T08:05:29;12.20;;;2.80;;
1563;SDS011;775;51.958;7.976;2024-01-15T08:08:18;14.97;;;3.40;;
1563;SDS011;775;51.958;7.976;2024-01-15T08:11:06;12.50;;;3.97;;
1563;SDS011;775;51.958;7.976;2024-01-15T08:13:54;12.40;;;3.07;;
1563;SDS011;775;51.958;7.976;2024-01-15T08:16:42;11.97;;;2.60;;
1563;SDS011;775;51.958;7.976;2024-01-15T08:19:30;14.50;;;2.60;;
1563;SDS011;775;51.958;7.976;2024-01-15T08:22:17;12.17;;;2.70;;
1563;SDS011;775;51.958;7.976;2024-01-15T08:25:05;12.30;;;2.63;;
1563;SDS011;775;51.958;7.976;2024-01-15T08:27:52;13.37;;;3.00;;
1563;SDS011;775;51.958;7.976;2024-01-15T08:30:40;13.40;;;3.63;;
1563;SDS011;775;51.958;7.976;2024-01-15T08:33:29;14.30;;;3.90;;
1563;SDS011;775;51.958;7.976;2024-01-15T08:36:17;13.23;;;2.87;;
1563;SDS011;775;51.958;7.976;2024-01-15T08:39:04;13.40;;;2.73;;
1563;SDS011;775;51.958;7.976;2024-01-15T08:41:52;13.13;;;2.97;;
1563;SDS011;775;51.958;7.976;2024-01-15T08:44:42;13.67;;;3.20;;
1563;SDS011;775;51.958;7.976;2024-01-15T08:47:30;13.10;;;3.17;;
1563;SDS011;775;51.958;7.976;2024-01-15T08:50:19;12.63;;;3.00;;
1563;SDS011;775;51.958;7.976;2024-01-15T08:53:06;14.10;;;3.30;;
1563;SDS011;775;51.958;7.976;2024-01-15T08:55:55;13.90;;;2.40;;
1563;SDS011;775;51.958;7.976;2024-01-15T08:58:43;14.80;;;2.60;;
1563;SDS011;775;51.958;7.976;2024-01-15T09:01:31;12.60;;;2.77;;
1563;SDS011;775;51.958;7.976;2024-01-15T09:04:18;11.50;;;2.70;;
1563;SDS011;775;51.958;7.976;2024-01-15T09:07:09;12.70;;;3.17;;
1563;SDS011;775;51.958;7.976;2024-01-15T09:09:57;12.80;;;2.87;;
1563;SDS011;775;51.958;7.976;2024-01-15T09:12:45;12.33;;;2.43;;
1563;SDS011;775;51.958;7.976;2024-01-15T09:15:32;14.70;;;2.60;;
1563;SDS011;775;51.958;7.976;2024-01-15T09:18:19;12.50;;;2.70;;
1563;SDS011;775;51.958;7.976;2024-01-15T09:21:07;12.50;;;2.70;;
1563;SDS011;775;51.958;7.976;2024-01-15T09:23:56;15.90;;;2.70;;
1563;SDS011;775;51.958;7.976;2024-01-15T09:26:43;11.50;;;2.57;;
1563;SDS011;775;51.958;7.976;2024-01-15T09:29:33;12.50;;;2.50;;
1563;SDS011;775;51.958;7.976;2024-01-15T09:32:22;15.20;;;2.73;;
1563;SDS011;775;51.958;7.976;2024-01-15T09:35:10;13.33;;;3.10;;
1563;SDS011;775;51.958;7.976;2024-01-15T09:37:57;13.00;;;2.27;;
1563;SDS011;775;51.958;7.976;2024-01-15T09:40:47;15.30;;;3.07;;
1563;SDS011;775;51.958;7.976;2024-01-15T09:43:34;12.53;;;2.47;;
1563;SDS011;775;51.958;7.976;2024-01-15T09:46:22;13.23;;;2.63;;
1563;SDS011;775;51.958;7.976;2024-01-15T09:49:10;12.00;;;2.40;;
1563;SDS011;775;51.958;7.976;2024-01-15T09:51:57;12.10;;;2.60;;
1563;SDS011;775;51.958;7.976;2024-01-15T09:54:45;13.77;;;2.40;;
1563;SDS011;775;51.958;7.976;2024-01-15T09:57:34;12.60;;;2.40;;
1563;SDS011;775;51.958;7.976;2024-01-15T10:00:24;14.10;;;2.70;;
1563;SDS011;775;51.958;7.976;2024-01-15T10:03:13;15.03;;;2.93;;
1563;SDS011;775;51.958;7.976;2024-01-15T10:06:00;14.60;;;2.57;;
1563;SDS011;775;51.958;7.976;2024-01-15T10:08:49;12.50;;;2.37;;
1563;SDS011;775;51.958;7.976;2024-01-15T10:11:36;12.90;;;3.10;;
1563;SDS011;775;51.958;7.976;2024-01-15T10:14:25;14.13;;;3.30;;
1563;SDS011;775;51.958;7.976;2024-01-15T10:17:12;13.97;;;2.70;;
1563;SDS011;775;51.958;7.976;2024-01-15T10:20:00;12.10;;;2.47;;
1563;SDS011;775;51.958;7.976;2024-01-15T10:22:49;12.10;;;3.40;;
1563;SDS011;775;51.958;7.976;2024-01-15T10:25:37;14.00;;;2.83;;
1563;SDS011;775;51.958;7.976;2024-01-15T10:28:26;13.33;;;3.87;;
1563;SDS011;775;51.958;7.976;2024-01-15T10:31:16;12.53;;;3.90;;
1563;SDS011;775;51.958;7.976;2024-01-15T10:34:11;12.27;;;2.47;;
1563;SDS011;775;51.958;7.976;2024-01-15T10:37:01;12.83;;;3.47;;
1563;SDS011;775;51.958;7.976;2024-01-15T10:39:48;13.97;;;3.10;;
1563;SDS011;775;51.958;7.976;2024-01-15T10:42:36;13.00;;;2.80;;
1563;SDS011;775;51.958;7.976;2024-01-15T10:45:29;11.90;;;2.60;;
1563;SDS011;775;51.958;7.976;2024-01-15T10:48:18;12.80;;;2.90;;
1563;SDS011;775;51.958;7.976;2024-01-15T10:51:05;13.93;;;3.57;;
1563;SDS011;775;51.958;7.976;2024-01-15T10:53:56;12.93;;;3.13;;
1563;SDS011;775;51.958;7.976;2024-01-15T10:56:44;13.33;;;2.73;;
1563;SDS011;775;51.958;7.976;2024-01-15T10:59:32;14.00;;;3.13;;
1563;SDS011;775;51.958;7.976;2024-01-15T11:02:20;13.37;;;3.23;;
1563;SDS011;775;51.958;7.976;2024-01-15T11:05:09;12.20;;;3.37;;
1563;SDS011;775;51.958;7.976;2024-01-15T11:07:59;14.30;;;4.17;;
1563;SDS011;775;51.958;7.976;2024-01-15T11:10:50;14.67;;;4.50;;
1563;SDS011;775;51.958;7.976;2024-01-15T11:13:40;15.00;;;5.40;;
1563;SDS011;775;51.958;7.976;2024-01-15T11:16:52;14.67;;;4.23;;
1563;SDS011;775;51.958;7.976;2024-01-15T11:19:43;12.97;;;3.80;;
1563;SDS011;775;51.958;7.976;2024-01-15T11:22:50;16.03;;;3.00;;
1563;SDS011;775;51.958;7.976;2024-01-15T11:25:37;13.90;;;3.80;;
1563;SDS011;775;51.958;7.976;2024-01-15T11:31:28;12.90;;;2.47;;
1563;SDS011;775;51.958;7.976;2024-01-15T11:34:15;12.73;;;3.40;;
1563;SDS011;775;51.958;7.976;2024-01-15T11:37:02;12.73;;;2.73;;
1563;SDS011;775;51.958;7.976;2024-01-15T11:39:52;11.60;;;2.50;;
1563;SDS011;775;51.958;7.976;2024-01-15T11:42:40;13.13;;;2.90;;
1563;SDS011;775;51.958;7.976;2024-01-15T11:45:27;11.47;;;2.80;;
1563;SDS011;775;51.958;7.976;2024-01-15T11:48:19;12.37;;;2.67;;
1563;SDS011;775;51.958;7.976;2024-01-15T11:51:09;12.27;;;2.30;;
1563;SDS011;775;51.958;7.976;2024-01-15T11:53:58;12.83;;;2.93;;
1563;SDS011;775;51.958;7.976;2024-01-15T11:56:50;14.30;;;2.40;;
1563;SDS011;775;51.958;7.976;2024-01-15T11:59:37;13.00;;;2.00;;
1563;SDS011;775;51.958;7.976;2024-01-15T12:02:25;12.60;;;2.30;;
1563;SDS011;775;51.958;7.976;2024-01-15T12:05:12;13.43;;;2.13;;
1563;SDS011;775;51.958;7.976;2024-01-15T12:08:00;13.77;;;2.10;;
1563;SDS011;775;51.958;7.976;2024-01-15T12:10:47;12.60;;;1.87;;
1563;SDS011;775;51.958;7.976;2024-01-15T12:13:37;11.63;;;2.20;;
1563;SDS011;775;51.958;7.976;2024-01-15T12:16:25;11.90;;;2.30;;
1563;SDS011;775;51.958;7.976;2024-01-15T12:19:13;13.10;;;2.30;;
1563;SDS011;775;51.958;7.976;2024-01-15T12:22:01;12.70;;;2.33;;
1563;SDS011;775;51.958;7.976;2024-01-15T12:24:49;12.13;;;1.93;;
1563;SDS011;775;51.958;7.976;2024-01-15T12:27:38;11.23;;;2.30;;
1563;SDS011;775;51.958;7.976;2024-01-15T12:30:27;11.00;;;1.80;;
1563;SDS011;775;51.958;7.976;2024-01-15T12:33:14;12.60;;;2.20;;
1563;SDS011;775;51.958;7.976;2024-01-15T12:36:03;11.70;;;2.03;;
1563;SDS011;775;51.958;7.976;2024-01-15T12:38:51;14.80;;;2.93;;
1563;SDS011;775;51.958;7.976;2024-01-15T12:41:38;11.40;;;2.07;;
1563;SDS011;775;51.958;7.976;2024-01-15T12:44:25;14.70;;;2.53;;
1563;SDS011;775;51.958;7.976;2024-01-15T12:47:14;12.90;;;2.13;;
1563;SDS011;775;51.958;7.976;2024-01-15T12:50:08;12.90;;;2.30;;
1563;SDS011;775;51.958;7.976;2024-01-15T12:52:55;12.00;;;2.00;;
1563;SDS011;775;51.958;7.976;2024-01-15T12:55:44;14.17;;;2.07;;
1563;SDS011;775;51.958;7.976;2024-01-15T12:58:32;13.40;;;2.67;;
1563;SDS011;775;51.958;7.976;2024-01-15T13:01:21;12.90;;;2.37;;
1563;SDS011;775;51.958;7.976;2024-01-15T13:04:09;13.13;;;2.20;;
1563;SDS011;775;51.958;7.976;2024-01-15T13:06:57;12.40;;;2.20;;
1563;SDS011;775;51.958;7.976;2024-01-15T13:09:44;11.40;;;2.20;;
1563;SDS011;775;51.958;7.976;2024-01-15T13:12:32;12.37;;;2.27;;
1563;SDS011;775;51.958;7.976;2024-01-15T13:15:20;12.37;;;2.47;;
1563;SDS011;775;51.958;7.976;2024-01-15T13:18:08;11.60;;;2.17;;
1563;SDS011;775;51.958;7.976;2024-01-15T13:20:57;14.73;;;2.63;;
1563;SDS011;775;51.958;7.976;2024-01-15T13:23:45;14.70;;;2.17;;
1563;SDS011;775;51.958;7.976;2024-01-15T13:26:33;11.50;;;2.00;;
1563;SDS011;775;51.958;7.976;2024-01-15T13:29:21;12.43;;;2.07;;
1563;SDS011;775;51.958;7.976;2024-01-15T13:32:08;12.70;;;2.97;;
1563;SDS011;775;51.958;7.976;2024-01-15T13:34:56;15.80;;;2.30;;
1563;SDS011;775;51.958;7.976;2024-01-15T13:37:45;13.20;;;2.23;;
1563;SDS011;775;51.958;7.976;2024-01-15T13:40:33;13.13;;;1.83;;
1563;SDS011;775;51.958;7.976;2024-01-15T13:43:20;16.40;;;2.03;;
1563;SDS011;775;51.958;7.976;2024-01-15T13:46:07;12.73;;;2.30;;
1563;SDS011;775;51.958;7.976;2024-01-15T13:48:55;12.50;;;1.93;;
1563;SDS011;775;51.958;7.976;2024-01-15T13:51:42;13.60;;;2.40;;
1563;SDS011;775;51.958;7.976;2024-01-15T13:54:31;15.00;;;1.80;;
1563;SDS011;775;51.958;7.976;2024-01-15T13:57:19;12.87;;;1.80;;
1563;SDS011;775;51.958;7.976;2024-01-15T14:00:07;13.90;;;1.97;;
1563;SDS011;775;51.958;7.976;2024-01-15T14:02:57;13.37;;;2.20;;
1563;SDS011;775;51.958;7.976;2024-01-15T14:05:44;13.07;;;2.43;;
1563;SDS011;775;51.958;7.976;2024-01-15T14:08:32;12.17;;;1.80;;
1563;SDS011;775;51.958;7.976;2024-01-15T14:11:20;11.17;;;1.87;;
1563;SDS011;775;51.958;7.976;2024-01-15T14:14:09;12.40;;;2.50;;
1563;SDS011;775;51.958;7.976;2024-01-15T14:16:56;13.10;;;2.10;;
1563;SDS011;775;51.958;7.976;2024-01-15T14:19:44;15.13;;;2.20;;
1563;SDS011;775;51.958;7.976;2024-01-15T14:22:31;12.27;;;1.97;;
1563;SDS011;775;51.958;7.976;2024-01-15T14:25:18;11.93;;;1.70;;
1563;SDS011;775;51.958;7.976;2024-01-15T14:28:11;11.30;;;1.50;;
1563;SDS011;775;51.958;7.976;2024-01-15T14:30:58;11.80;;;1.73;;
1563;SDS011;775;51.958;7.976;2024-01-15T14:33:46;13.40;;;1.70;;
1563;SDS011;775;51.958;7.976;2024-01-15T14:36:33;12.03;;;1.50;;
1563;SDS011;775;51.958;7.976;2024-01-15T14:39:22;11.20;;;1.70;;
1563;SDS011;775;51.958;7.976;2024-01-15T14:42:11;12.40;;;1.63;;
1563;SDS011;775;51.958;7.976;2024-01-15T14:45:00;12.83;;;1.80;;
1563;SDS011;775;51.958;7.976;2024-01-15T14:47:48;11.20;;;2.13;;
1563;SDS011;775;51.958;7.976;2024-01-15T14:50:35;11.50;;;1.83;;
1563;SDS011;775;51.958;7.976;2024-01-15T14:53:23;11.60;;;1.53;;
1563;SDS011;775;51.958;7.976;2024-01-15T14:56:10;10.77;;;1.33;;
1563;SDS011;775;51.958;7.976;2024-01-15T14:58:58;10.80;;;1.33;;
1563;SDS011;775;51.958;7.976;2024-01-15T15:01:49;11.60;;;1.80;;
1563;SDS011;775;51.958;7.976;2024-01-15T15:04:37;10.83;;;1.50;;
1563;SDS011;775;51.958;7.976;2024-01-15T15:07:24;11.67;;;1.40;;
1563;SDS011;775;51.958;7.976;2024-01-15T15:10:11;11.07;;;1.80;;
1563;SDS011;775;51.958;7.976;2024-01-15T15:13:00;12.27;;;1.40;;
1563;SDS011;775;51.958;7.976;2024-01-15T15:15:47;12.77;;;1.50;;
1563;SDS011;775;51.958;7.976;2024-01-15T15:18:36;12.30;;;1.50;;
1563;SDS011;775;51.958;7.976;2024-01-15T15:21:23;10.97;;;1.40;;
1563;SDS011;775;51.958;7.976;2024-01-15T15:24:12;11.97;;;1.40;;
1563;SDS011;775;51.958;7.976;2024-01-15T15:26:59;11.30;;;1.60;;
1563;SDS011;775;51.958;7.976;2024-01-15T15:29:47;12.47;;;1.60;;
1563;SDS011;775;51.958;7.976;2024-01-15T15:32:35;11.07;;;1.63;;
1563;SDS011;775;51.958;7.976;2024-01-15T15:35:24;11.40;;;1.83;;
1563;SDS011;775;51.958;7.976;2024-01-15T15:38:12;12.40;;;2.20;;
1563;SDS011;775;51.958;7.976;2024-01-15T15:40:59;12.83;;;2.10;;
1563;SDS011;775;51.958;7.976;2024-01-15T15:43:47;10.87;;;1.40;;
1563;SDS011;775;51.958;7.976;2024-01-15T15:46:34;12.23;;;1.90;;
1563;SDS011;775;51.958;7.976;2024-01-15T15:49:21;11.07;;;1.27;;
1563;SDS011;775;51.958;7.976;2024-01-15T15:52:10;14.90;;;4.37;;
1563;SDS011;775;51.958;7.976;2024-01-15T15:54:57;13.10;;;2.03;;
1563;SDS011;775;51.958;7.976;2024-01-15T15:57:45;12.50;;;1.93;;
1563;SDS011;775;51.958;7.976;2024-01-15T16:00:32;15.40;;;1.93;;
1563;SDS011;775;51.958;7.976;2024-01-15T16:03:20;11.50;;;2.00;;
1563;SDS011;775;51.958;7.976;2024-01-15T16:06:07;12.37;;;1.90;;
1563;SDS011;775;51.958;7.976;2024-01-15T16:08:57;12.17;;;1.93;;
1563;SDS011;775;51.958;7.976;2024-01-15T16:11:45;12.77;;;2.23;;
1563;SDS011;775;51.958;7.976;2024-01-15T16:14:32;12.27;;;2.10;;
1563;SDS011;775;51.958;7.976;2024-01-15T16:17:20;11.97;;;1.73;;
1563;SDS011;775;51.958;7.976;2024-01-15T16:20:07;11.50;;;1.67;;
1563;SDS011;775;51.958;7.976;2024-01-15T16:22:55;12.80;;;1.77;;
1563;SDS011;775;51.958;7.976;2024-01-15T16:25:44;13.83;;;2.90;;
1563;SDS011;775;51.958;7.976;2024-01-15T16:28:31;15.60;;;3.20;;
1563;SDS011;775;51.958;7.976;2024-01-15T16:31:18;14.00;;;2.70;;
1563;SDS011;775;51.958;7.976;2024-01-15T16:34:06;14.20;;;2.70;;
1563;SDS011;775;51.958;7.976;2024-01-15T16:36:54;13.87;;;2.20;;
1563;SDS011;775;51.958;7.976;2024-01-15T16:39:42;13.50;;;2.40;;
1563;SDS011;775;51.958;7.976;2024-01-15T16:42:31;12.13;;;2.20;;
1563;SDS011;775;51.958;7.976;2024-01-15T16:45:19;13.13;;;2.03;;
1563;SDS011;775;51.958;7.976;2024-01-15T16:48:07;14.10;;;1.90;;
1563;SDS011;775;51.958;7.976;2024-01-15T16:50:55;16.17;;;2.70;;
1563;SDS011;775;51.958;7.976;2024-01-15T16:53:42;13.93;;;2.50;;
1563;SDS011;775;51.958;7.976;2024-01-15T16:56:29;12.43;;;2.13;;
1563;SDS011;775;51.958;7.976;2024-01-15T16:59:18;12.40;;;2.17;;
1563;SDS011;775;51.958;7.976;2024-01-15T17:02:07;13.37;;;2.20;;
1563;SDS011;775;51.958;7.976;2024-01-15T17:04:55;13.87;;;1.97;;
1563;SDS011;775;51.958;7.976;2024-01-15T17:07:42;14.83;;;3.10;;
1563;SDS011;775;51.958;7.976;2024-01-15T17:10:30;12.80;;;2.17;;
1563;SDS011;775;51.958;7.976;2024-01-15T17:13:18;13.27;;;2.50;;
1563;SDS011;775;51.958;7.976;2024-01-15T17:16:07;14.17;;;1.87;;
1563;SDS011;775;51.958;7.976;2024-01-15T17:18:55;12.83;;;2.03;;
1563;SDS011;775;51.958;7.976;2024-01-15T17:21:42;12.53;;;2.73;;
1563;SDS011;775;51.958;7.976;2024-01-15T17:24:29;11.90;;;2.10;;
1563;SDS011;775;51.958;7.976;2024-01-15T17:27:17;18.73;;;2.33;;